sensor_id;sensor_type;location;lat;lon;timestamp;temperature;humidity
7129;DHT22;3606;52.930;8.644;2023-04-16T00:00:10;9.00;99.90
7129;DHT22;3606;52.930;8.644;2023-04-16T00:02:36;8.90;99.90
7129;DHT22;3606;52.930;8.644;2023-04-16T00:05:02;8.90;99.90
7129;DHT22;3606;52.930;8.644;2023-04-16T00:07:28;8.90;99.90
7129;DHT22;3606;52.930;8.644;2023-04-16T00:09:53;8.80;99.90
7129;DHT22;3606;52.930;8.644;2023-04-16T00:12:20;8.70;99.90
7129;DHT22;3606;52.930;8.644;2023-04-16T00:14:45;8.60;99.90
7129;DHT22;3606;52.930;8.644;2023-04-16T00:17:11;8.60;99.90
7129;DHT22;3606;52.930;8.644;2023-04-16T00:19:37;8.50;99.90
7129;DHT22;3606;52.930;8.644;2023-04-16T00:22:03;8.60;99.90
7129;DHT22;3606;52.930;8.644;2023-04-16T00:24:28;8.50;99.90
7129;DHT22;3606;52.930;8.644;2023-04-16T00:26:54;8.40;99.90
7129;DHT22;3606;52.930;8.644;2023-04-16T00:29:20;8.40;99.90
7129;DHT22;3606;52.930;8.644;2023-04-16T00:31:46;8.40;99.90
7129;DHT22;3606;52.930;8.644;2023-04-16T00:34:11;8.30;99.90
7129;DHT22;3606;52.930;8.644;2023-04-16T00:36:37;8.30;99.90
7129;DHT22;3606;52.930;8.644;2023-04-16T00:39:02;8.30;99.90
7129;DHT22;3606;52.930;8.644;2023-04-16T00:41:28;8.30;99.90
7129;DHT22;3606;52.930;8.644;2023-04-16T00:43:54;8.20;99.90
7129;DHT22;3606;52.930;8.644;2023-04-16T00:46:21;8.20;99.90
7129;DHT22;3606;52.930;8.644;2023-04-16T00:48:48;8.20;99.90
7129;DHT22;3606;52.930;8.644;2023-04-16T00:51:14;8.20;99.90
7129;DHT22;3606;52.930;8.644;2023-04-16T00:53:40;8.30;99.90
7129;DHT22;3606;52.930;8.644;2023-04-16T00:56:06;8.20;99.90
7129;DHT22;3606;52.930;8.644;2023-04-16T00:58:34;8.20;99.90
7129;DHT22;3606;52.930;8.644;2023-04-16T01:00:59;8.10;99.90
7129;DHT22;3606;52.930;8.644;2023-04-16T01:03:38;8.10;99.90
7129;DHT22;3606;52.930;8.644;2023-04-16T01:06:05;8.10;99.90
7129;DHT22;3606;52.930;8.644;2023-04-16T01:08:31;8.00;99.90
7129;DHT22;3606;52.930;8.644;2023-04-16T01:10:57;8.00;99.90
7129;DHT22;3606;52.930;8.644;2023-04-16T01:13:22;8.00;99.90
7129;DHT22;3606;52.930;8.644;2023-04-16T01:15:48;8.00;99.90
7129;DHT22;3606;52.930;8.644;2023-04-16T01:18:15;8.00;99.90
7129;DHT22;3606;52.930;8.644;2023-04-16T01:20:40;8.00;99.90
7129;DHT22;3606;52.930;8.644;2023-04-16T01:23:06;8.00;99.90
7129;DHT22;3606;52.930;8.644;2023-04-16T01:25:31;8.00;99.90
7129;DHT22;3606;52.930;8.644;2023-04-16T01:27:57;8.00;99.90
7129;DHT22;3606;52.930;8.644;2023-04-16T01:30:23;8.00;99.90
7129;DHT22;3606;52.930;8.644;2023-04-16T01:32:49;7.90;99.90
7129;DHT22;3606;52.930;8.644;2023-04-16T01:35:15;7.90;99.90
7129;DHT22;3606;52.930;8.644;2023-04-16T01:37:42;8.00;99.90
7129;DHT22;3606;52.930;8.644;2023-04-16T01:40:08;8.00;99.90
7129;DHT22;3606;52.930;8.644;2023-04-16T01:42:34;8.00;99.90
7129;DHT22;3606;52.930;8.644;2023-04-16T01:45:00;8.00;99.90
7129;DHT22;3606;52.930;8.644;2023-04-16T01:47:25;8.00;99.90
7129;DHT22;3606;52.930;8.644;2023-04-16T01:49:51;7.90;99.90
7129;DHT22;3606;52.930;8.644;2023-04-16T01:52:16;7.90;99.90
7129;DHT22;3606;52.930;8.644;2023-04-16T01:54:42;7.90;99.90
7129;DHT22;3606;52.930;8.644;2023-04-16T01:57:08;8.00;99.90
7129;DHT22;3606;52.930;8.644;2023-04-16T01:59:34;8.00;99.90
7129;DHT22;3606;52.930;8.644;2023-04-16T02:02:07;8.00;99.90
7129;DHT22;3606;52.930;8.644;2023-04-16T02:04:33;8.00;99.90
7129;DHT22;3606;52.930;8.644;2023-04-16T02:06:58;8.00;99.90
7129;DHT22;3606;52.930;8.644;2023-04-16T02:09:24;8.00;99.90
7129;DHT22;3606;52.930;8.644;2023-04-16T02:11:49;7.90;99.90
7129;DHT22;3606;52.930;8.644;2023-04-16T02:14:15;7.90;99.90
7129;DHT22;3606;52.930;8.644;2023-04-16T02:16:40;7.90;99.90
7129;DHT22;3606;52.930;8.644;2023-04-16T02:19:06;7.90;99.90
7129;DHT22;3606;52.930;8.644;2023-04-16T02:21:32;7.90;99.90
7129;DHT22;3606;52.930;8.644;2023-04-16T02:23:57;7.90;99.90
7129;DHT22;3606;52.930;8.644;2023-04-16T02:26:23;7.90;99.90
7129;DHT22;3606;52.930;8.644;2023-04-16T02:28:50;7.90;99.90
7129;DHT22;3606;52.930;8.644;2023-04-16T02:31:16;8.00;99.90
7129;DHT22;3606;52.930;8.644;2023-04-16T02:33:44;8.00;99.90
7129;DHT22;3606;52.930;8.644;2023-04-16T02:36:09;8.00;99.90
7129;DHT22;3606;52.930;8.644;2023-04-16T02:38:35;8.00;99.90
7129;DHT22;3606;52.930;8.644;2023-04-16T02:41:02;8.00;99.90
7129;DHT22;3606;52.930;8.644;2023-04-16T02:43:27;8.00;99.90
7129;DHT22;3606;52.930;8.644;2023-04-16T02:45:53;8.00;99.90
7129;DHT22;3606;52.930;8.644;2023-04-16T02:48:18;8.00;99.90
7129;DHT22;3606;52.930;8.644;2023-04-16T02:50:44;8.00;99.90
7129;DHT22;3606;52.930;8.644;2023-04-16T02:53:09;8.00;99.90
7129;DHT22;3606;52.930;8.644;2023-04-16T02:55:35;8.00;99.90
7129;DHT22;3606;52.930;8.644;2023-04-16T02:58:01;8.00;99.90
7129;DHT22;3606;52.930;8.644;2023-04-16T03:00:27;8.00;99.90
7129;DHT22;3606;52.930;8.644;2023-04-16T03:02:52;8.00;99.90
7129;DHT22;3606;52.930;8.644;2023-04-16T03:05:18;8.00;99.90
7129;DHT22;3606;52.930;8.644;2023-04-16T03:07:43;8.00;99.90
7129;DHT22;3606;52.930;8.644;2023-04-16T03:10:09;8.00;99.90
7129;DHT22;3606;52.930;8.644;2023-04-16T03:12:36;7.90;99.90
7129;DHT22;3606;52.930;8.644;2023-04-16T03:15:02;7.90;99.90
7129;DHT22;3606;52.930;8.644;2023-04-16T03:17:27;7.90;99.90
7129;DHT22;3606;52.930;8.644;2023-04-16T03:19:53;7.90;99.90
7129;DHT22;3606;52.930;8.644;2023-04-16T03:22:18;8.00;99.90
7129;DHT22;3606;52.930;8.644;2023-04-16T03:24:44;7.90;99.90
7129;DHT22;3606;52.930;8.644;2023-04-16T03:27:09;7.90;99.90
7129;DHT22;3606;52.930;8.644;2023-04-16T03:29:36;7.90;99.90
7129;DHT22;3606;52.930;8.644;2023-04-16T03:32:04;7.90;99.90
7129;DHT22;3606;52.930;8.644;2023-04-16T03:34:30;7.90;99.90
7129;DHT22;3606;52.930;8.644;2023-04-16T03:36:56;7.90;99.90
7129;DHT22;3606;52.930;8.644;2023-04-16T03:39:21;7.90;99.90
7129;DHT22;3606;52.930;8.644;2023-04-16T03:41:47;7.90;99.90
7129;DHT22;3606;52.930;8.644;2023-04-16T03:44:12;7.90;99.90
7129;DHT22;3606;52.930;8.644;2023-04-16T03:46:38;7.90;99.90
7129;DHT22;3606;52.930;8.644;2023-04-16T03:49:03;7.90;99.90
7129;DHT22;3606;52.930;8.644;2023-04-16T03:51:29;7.90;99.90
7129;DHT22;3606;52.930;8.644;2023-04-16T03:53:55;7.90;99.90
7129;DHT22;3606;52.930;8.644;2023-04-16T03:56:20;7.90;99.90
7129;DHT22;3606;52.930;8.644;2023-04-16T03:58:46;7.90;99.90
7129;DHT22;3606;52.930;8.644;2023-04-16T04:01:11;7.90;99.90
7129;DHT22;3606;52.930;8.644;2023-04-16T04:03:37;7.90;99.90
7129;DHT22;3606;52.930;8.644;2023-04-16T04:06:07;7.90;99.90
7129;DHT22;3606;52.930;8.644;2023-04-16T04:08:32;7.90;99.90
7129;DHT22;3606;52.930;8.644;2023-04-16T04:10:58;7.90;99.90
7129;DHT22;3606;52.930;8.644;2023-04-16T04:13:24;7.90;99.90
7129;DHT22;3606;52.930;8.644;2023-04-16T04:15:50;7.90;99.90
7129;DHT22;3606;52.930;8.644;2023-04-16T04:18:15;7.90;99.90
7129;DHT22;3606;52.930;8.644;2023-04-16T04:20:41;7.90;99.90
7129;DHT22;3606;52.930;8.644;2023-04-16T04:23:06;7.90;99.90
7129;DHT22;3606;52.930;8.644;2023-04-16T04:25:32;7.80;99.90
7129;DHT22;3606;52.930;8.644;2023-04-16T04:27:58;7.90;99.90
7129;DHT22;3606;52.930;8.644;2023-04-16T04:30:23;7.90;99.90
7129;DHT22;3606;52.930;8.644;2023-04-16T04:32:49;7.90;99.90
7129;DHT22;3606;52.930;8.644;2023-04-16T04:35:15;7.90;99.90
7129;DHT22;3606;52.930;8.644;2023-04-16T04:37:40;7.80;99.90
7129;DHT22;3606;52.930;8.644;2023-04-16T04:40:06;7.80;99.90
7129;DHT22;3606;52.930;8.644;2023-04-16T04:42:32;7.90;99.90
7129;DHT22;3606;52.930;8.644;2023-04-16T04:44:58;7.90;99.90
7129;DHT22;3606;52.930;8.644;2023-04-16T04:47:23;7.90;99.90
7129;DHT22;3606;52.930;8.644;2023-04-16T04:49:49;7.90;99.90
7129;DHT22;3606;52.930;8.644;2023-04-16T04:52:14;7.90;99.90
7129;DHT22;3606;52.930;8.644;2023-04-16T04:54:40;7.90;99.90
7129;DHT22;3606;52.930;8.644;2023-04-16T04:57:06;7.90;99.90
7129;DHT22;3606;52.930;8.644;2023-04-16T04:59:33;7.90;99.90
7129;DHT22;3606;52.930;8.644;2023-04-16T05:01:59;7.90;99.90
7129;DHT22;3606;52.930;8.644;2023-04-16T05:04:24;7.90;99.90
7129;DHT22;3606;52.930;8.644;2023-04-16T05:06:50;7.90;99.90
7129;DHT22;3606;52.930;8.644;2023-04-16T05:09:15;7.90;99.90
7129;DHT22;3606;52.930;8.644;2023-04-16T05:11:41;7.90;99.90
7129;DHT22;3606;52.930;8.644;2023-04-16T05:14:07;8.00;99.90
7129;DHT22;3606;52.930;8.644;2023-04-16T05:16:36;8.00;99.90
7129;DHT22;3606;52.930;8.644;2023-04-16T05:19:02;8.00;99.90
7129;DHT22;3606;52.930;8.644;2023-04-16T05:21:28;8.10;99.90
7129;DHT22;3606;52.930;8.644;2023-04-16T05:23:53;8.10;99.90
7129;DHT22;3606;52.930;8.644;2023-04-16T05:26:19;8.10;99.90
7129;DHT22;3606;52.930;8.644;2023-04-16T05:28:45;8.20;99.90
7129;DHT22;3606;52.930;8.644;2023-04-16T05:31:11;8.20;99.90
7129;DHT22;3606;52.930;8.644;2023-04-16T05:33:36;8.20;99.90
7129;DHT22;3606;52.930;8.644;2023-04-16T05:36:02;8.30;99.90
7129;DHT22;3606;52.930;8.644;2023-04-16T05:38:28;8.30;99.90
7129;DHT22;3606;52.930;8.644;2023-04-16T05:40:54;8.40;99.90
7129;DHT22;3606;52.930;8.644;2023-04-16T05:43:20;8.40;99.90
7129;DHT22;3606;52.930;8.644;2023-04-16T05:45:45;8.50;99.90
7129;DHT22;3606;52.930;8.644;2023-04-16T05:48:11;8.50;99.90
7129;DHT22;3606;52.930;8.644;2023-04-16T05:50:38;8.60;99.90
7129;DHT22;3606;52.930;8.644;2023-04-16T05:53:05;8.70;99.90
7129;DHT22;3606;52.930;8.644;2023-04-16T05:55:31;8.70;99.90
7129;DHT22;3606;52.930;8.644;2023-04-16T05:57:57;8.80;99.90
7129;DHT22;3606;52.930;8.644;2023-04-16T06:00:23;8.90;99.90
7129;DHT22;3606;52.930;8.644;2023-04-16T06:02:49;8.90;99.90
7129;DHT22;3606;52.930;8.644;2023-04-16T06:05:15;8.90;99.90
7129;DHT22;3606;52.930;8.644;2023-04-16T06:07:41;9.00;99.90
7129;DHT22;3606;52.930;8.644;2023-04-16T06:10:06;9.00;99.90
7129;DHT22;3606;52.930;8.644;2023-04-16T06:12:32;9.00;99.90
7129;DHT22;3606;52.930;8.644;2023-04-16T06:14:59;9.00;99.90
7129;DHT22;3606;52.930;8.644;2023-04-16T06:17:24;9.10;99.90
7129;DHT22;3606;52.930;8.644;2023-04-16T06:19:51;9.10;99.90
7129;DHT22;3606;52.930;8.644;2023-04-16T06:22:16;9.20;99.90
7129;DHT22;3606;52.930;8.644;2023-04-16T06:24:42;9.20;99.90
7129;DHT22;3606;52.930;8.644;2023-04-16T06:27:08;9.20;99.90
7129;DHT22;3606;52.930;8.644;2023-04-16T06:29:33;9.20;99.90
7129;DHT22;3606;52.930;8.644;2023-04-16T06:31:59;9.20;99.90
7129;DHT22;3606;52.930;8.644;2023-04-16T06:34:26;9.30;99.90
7129;DHT22;3606;52.930;8.644;2023-04-16T06:36:52;9.30;99.90
7129;DHT22;3606;52.930;8.644;2023-04-16T06:39:17;9.40;99.90
7129;DHT22;3606;52.930;8.644;2023-04-16T06:41:48;9.40;99.90
7129;DHT22;3606;52.930;8.644;2023-04-16T06:44:14;9.40;99.90
7129;DHT22;3606;52.930;8.644;2023-04-16T06:46:40;9.50;99.90
7129;DHT22;3606;52.930;8.644;2023-04-16T06:49:06;9.50;99.90
7129;DHT22;3606;52.930;8.644;2023-04-16T06:51:32;9.50;99.90
7129;DHT22;3606;52.930;8.644;2023-04-16T06:53:57;9.50;99.90
7129;DHT22;3606;52.930;8.644;2023-04-16T06:56:23;9.50;99.90
7129;DHT22;3606;52.930;8.644;2023-04-16T06:58:49;9.50;99.90
7129;DHT22;3606;52.930;8.644;2023-04-16T07:01:16;9.50;99.90
7129;DHT22;3606;52.930;8.644;2023-04-16T07:03:41;9.50;99.90
7129;DHT22;3606;52.930;8.644;2023-04-16T07:06:07;9.50;99.90
7129;DHT22;3606;52.930;8.644;2023-04-16T07:08:33;9.60;99.90
7129;DHT22;3606;52.930;8.644;2023-04-16T07:10:58;9.60;99.90
7129;DHT22;3606;52.930;8.644;2023-04-16T07:13:24;9.60;99.90
7129;DHT22;3606;52.930;8.644;2023-04-16T07:15:50;9.60;99.90
7129;DHT22;3606;52.930;8.644;2023-04-16T07:18:16;9.60;99.90
7129;DHT22;3606;52.930;8.644;2023-04-16T07:20:41;9.60;99.90
7129;DHT22;3606;52.930;8.644;2023-04-16T07:23:07;9.70;99.90
7129;DHT22;3606;52.930;8.644;2023-04-16T07:25:32;9.80;99.90
7129;DHT22;3606;52.930;8.644;2023-04-16T07:27:58;9.80;99.90
7129;DHT22;3606;52.930;8.644;2023-04-16T07:30:23;9.90;99.90
7129;DHT22;3606;52.930;8.644;2023-04-16T07:32:50;9.90;99.90
7129;DHT22;3606;52.930;8.644;2023-04-16T07:35:16;10.00;90.30
7129;DHT22;3606;52.930;8.644;2023-04-16T07:37:41;10.00;76.20
7129;DHT22;3606;52.930;8.644;2023-04-16T07:40:07;10.10;83.30
7129;DHT22;3606;52.930;8.644;2023-04-16T07:42:33;10.20;45.40
7129;DHT22;3606;52.930;8.644;2023-04-16T07:44:59;10.20;28.50
7129;DHT22;3606;52.930;8.644;2023-04-16T07:47:25;10.20;45.80
7129;DHT22;3606;52.930;8.644;2023-04-16T07:49:51;10.30;67.20
7129;DHT22;3606;52.930;8.644;2023-04-16T07:52:18;10.30;30.70
7129;DHT22;3606;52.930;8.644;2023-04-16T07:54:43;10.30;59.70
7129;DHT22;3606;52.930;8.644;2023-04-16T07:57:10;10.40;17.90
7129;DHT22;3606;52.930;8.644;2023-04-16T07:59:36;10.30;22.90
7129;DHT22;3606;52.930;8.644;2023-04-16T08:02:02;10.30;1.00
7129;DHT22;3606;52.930;8.644;2023-04-16T08:04:28;10.40;18.50
7129;DHT22;3606;52.930;8.644;2023-04-16T08:06:53;10.50;30.80
7129;DHT22;3606;52.930;8.644;2023-04-16T08:09:20;10.70;24.90
7129;DHT22;3606;52.930;8.644;2023-04-16T08:11:47;10.90;1.00
7129;DHT22;3606;52.930;8.644;2023-04-16T08:14:17;10.90;1.00
7129;DHT22;3606;52.930;8.644;2023-04-16T08:16:43;11.00;1.00
7129;DHT22;3606;52.930;8.644;2023-04-16T08:19:08;11.10;1.00
7129;DHT22;3606;52.930;8.644;2023-04-16T08:21:34;11.20;1.00
7129;DHT22;3606;52.930;8.644;2023-04-16T08:23:59;11.30;1.00
7129;DHT22;3606;52.930;8.644;2023-04-16T08:26:25;11.50;1.00
7129;DHT22;3606;52.930;8.644;2023-04-16T08:28:51;11.60;1.00
7129;DHT22;3606;52.930;8.644;2023-04-16T08:31:17;11.60;1.00
7129;DHT22;3606;52.930;8.644;2023-04-16T08:33:42;11.70;99.90
7129;DHT22;3606;52.930;8.644;2023-04-16T08:36:08;11.70;99.90
7129;DHT22;3606;52.930;8.644;2023-04-16T08:38:34;11.60;1.00
7129;DHT22;3606;52.930;8.644;2023-04-16T08:41:04;11.60;1.00
7129;DHT22;3606;52.930;8.644;2023-04-16T08:43:32;11.60;1.00
7129;DHT22;3606;52.930;8.644;2023-04-16T08:46:00;11.60;1.00
7129;DHT22;3606;52.930;8.644;2023-04-16T08:48:28;11.70;1.00
7129;DHT22;3606;52.930;8.644;2023-04-16T08:50:59;11.60;1.00
7129;DHT22;3606;52.930;8.644;2023-04-16T08:53:40;11.60;1.00
7129;DHT22;3606;52.930;8.644;2023-04-16T08:56:09;11.70;1.00
7129;DHT22;3606;52.930;8.644;2023-04-16T08:58:36;11.70;1.00
7129;DHT22;3606;52.930;8.644;2023-04-16T09:01:02;11.60;1.00
7129;DHT22;3606;52.930;8.644;2023-04-16T09:03:31;11.70;1.00
7129;DHT22;3606;52.930;8.644;2023-04-16T09:05:57;11.80;1.00
7129;DHT22;3606;52.930;8.644;2023-04-16T09:08:25;11.80;1.00
7129;DHT22;3606;52.930;8.644;2023-04-16T09:10:50;11.90;1.00
7129;DHT22;3606;52.930;8.644;2023-04-16T09:13:17;12.00;1.00
7129;DHT22;3606;52.930;8.644;2023-04-16T09:15:45;12.20;1.00
7129;DHT22;3606;52.930;8.644;2023-04-16T09:18:11;12.30;1.00
7129;DHT22;3606;52.930;8.644;2023-04-16T09:20:37;12.30;1.00
7129;DHT22;3606;52.930;8.644;2023-04-16T09:23:03;12.30;1.00
7129;DHT22;3606;52.930;8.644;2023-04-16T09:25:33;12.30;1.00
7129;DHT22;3606;52.930;8.644;2023-04-16T09:28:02;12.50;99.90
7129;DHT22;3606;52.930;8.644;2023-04-16T09:30:28;12.50;99.90
7129;DHT22;3606;52.930;8.644;2023-04-16T09:33:17;12.50;99.90
7129;DHT22;3606;52.930;8.644;2023-04-16T09:35:48;12.80;99.90
7129;DHT22;3606;52.930;8.644;2023-04-16T09:38:14;12.70;99.90
7129;DHT22;3606;52.930;8.644;2023-04-16T09:40:40;12.80;99.90
7129;DHT22;3606;52.930;8.644;2023-04-16T09:45:53;13.20;99.90
7129;DHT22;3606;52.930;8.644;2023-04-16T09:48:29;13.50;99.90
7129;DHT22;3606;52.930;8.644;2023-04-16T09:50:56;13.70;99.90
7129;DHT22;3606;52.930;8.644;2023-04-16T09:53:25;13.80;99.90
7129;DHT22;3606;52.930;8.644;2023-04-16T09:55:54;13.90;99.90
7129;DHT22;3606;52.930;8.644;2023-04-16T09:58:22;14.10;99.90
7129;DHT22;3606;52.930;8.644;2023-04-16T10:00:49;14.30;99.90
7129;DHT22;3606;52.930;8.644;2023-04-16T10:03:30;14.50;1.00
7129;DHT22;3606;52.930;8.644;2023-04-16T10:08:31;14.10;99.90
7129;DHT22;3606;52.930;8.644;2023-04-16T10:10:57;14.10;99.90
7129;DHT22;3606;52.930;8.644;2023-04-16T10:13:24;14.10;30.80
7129;DHT22;3606;52.930;8.644;2023-04-16T10:15:54;14.10;99.90
7129;DHT22;3606;52.930;8.644;2023-04-16T10:18:21;14.10;99.90
7129;DHT22;3606;52.930;8.644;2023-04-16T10:20:47;14.00;99.90
7129;DHT22;3606;52.930;8.644;2023-04-16T10:23:13;13.80;79.90
7129;DHT22;3606;52.930;8.644;2023-04-16T10:25:39;13.70;99.90
7129;DHT22;3606;52.930;8.644;2023-04-16T10:28:06;13.80;99.90
7129;DHT22;3606;52.930;8.644;2023-04-16T10:30:33;14.00;1.00
7129;DHT22;3606;52.930;8.644;2023-04-16T10:33:01;14.20;1.00
7129;DHT22;3606;52.930;8.644;2023-04-16T10:35:29;14.40;49.30
7129;DHT22;3606;52.930;8.644;2023-04-16T10:38:26;14.90;1.00
7129;DHT22;3606;52.930;8.644;2023-04-16T10:41:02;15.30;1.00
7129;DHT22;3606;52.930;8.644;2023-04-16T10:43:29;15.20;1.00
7129;DHT22;3606;52.930;8.644;2023-04-16T10:45:55;15.00;1.00
7129;DHT22;3606;52.930;8.644;2023-04-16T10:48:23;14.90;1.00
7129;DHT22;3606;52.930;8.644;2023-04-16T10:50:56;14.90;1.00
7129;DHT22;3606;52.930;8.644;2023-04-16T10:53:23;15.00;1.00
7129;DHT22;3606;52.930;8.644;2023-04-16T10:58:33;15.40;99.90
7129;DHT22;3606;52.930;8.644;2023-04-16T11:01:00;15.50;99.90
7129;DHT22;3606;52.930;8.644;2023-04-16T11:03:30;15.30;99.90
7129;DHT22;3606;52.930;8.644;2023-04-16T11:06:15;15.30;99.90
7129;DHT22;3606;52.930;8.644;2023-04-16T11:08:44;15.70;1.00
7129;DHT22;3606;52.930;8.644;2023-04-16T11:11:11;16.00;99.90
7129;DHT22;3606;52.930;8.644;2023-04-16T11:13:36;16.20;99.90
7129;DHT22;3606;52.930;8.644;2023-04-16T11:16:03;16.10;99.90
7129;DHT22;3606;52.930;8.644;2023-04-16T11:18:29;16.00;99.90
7129;DHT22;3606;52.930;8.644;2023-04-16T11:20:55;16.10;99.90
7129;DHT22;3606;52.930;8.644;2023-04-16T11:23:21;16.50;99.90
7129;DHT22;3606;52.930;8.644;2023-04-16T11:25:46;16.30;1.00
7129;DHT22;3606;52.930;8.644;2023-04-16T11:28:12;15.80;99.90
7129;DHT22;3606;52.930;8.644;2023-04-16T11:30:38;15.80;1.00
7129;DHT22;3606;52.930;8.644;2023-04-16T11:33:07;16.00;1.00
7129;DHT22;3606;52.930;8.644;2023-04-16T11:35:33;16.10;1.00
7129;DHT22;3606;52.930;8.644;2023-04-16T11:37:59;16.10;99.90
7129;DHT22;3606;52.930;8.644;2023-04-16T11:40:28;16.20;99.90
7129;DHT22;3606;52.930;8.644;2023-04-16T11:42:54;16.20;99.90
7129;DHT22;3606;52.930;8.644;2023-04-16T11:45:20;15.80;99.90
7129;DHT22;3606;52.930;8.644;2023-04-16T11:47:50;15.70;99.90
7129;DHT22;3606;52.930;8.644;2023-04-16T11:50:19;16.10;1.00
7129;DHT22;3606;52.930;8.644;2023-04-16T11:52:46;16.30;99.90
7129;DHT22;3606;52.930;8.644;2023-04-16T11:55:12;16.10;99.90
7129;DHT22;3606;52.930;8.644;2023-04-16T11:57:37;16.00;99.90
7129;DHT22;3606;52.930;8.644;2023-04-16T12:00:03;16.00;99.90
7129;DHT22;3606;52.930;8.644;2023-04-16T12:02:42;16.00;1.00
7129;DHT22;3606;52.930;8.644;2023-04-16T12:05:27;15.80;99.90
7129;DHT22;3606;52.930;8.644;2023-04-16T12:07:54;16.00;99.90
7129;DHT22;3606;52.930;8.644;2023-04-16T12:10:20;16.20;99.90
7129;DHT22;3606;52.930;8.644;2023-04-16T12:12:46;16.50;99.90
7129;DHT22;3606;52.930;8.644;2023-04-16T12:15:12;16.80;1.00
7129;DHT22;3606;52.930;8.644;2023-04-16T12:17:38;17.00;1.00
7129;DHT22;3606;52.930;8.644;2023-04-16T12:20:13;17.30;99.90
7129;DHT22;3606;52.930;8.644;2023-04-16T12:22:46;17.30;1.00
7129;DHT22;3606;52.930;8.644;2023-04-16T12:25:13;16.90;1.00
7129;DHT22;3606;52.930;8.644;2023-04-16T12:27:46;16.80;99.90
7129;DHT22;3606;52.930;8.644;2023-04-16T12:30:14;16.40;99.90
7129;DHT22;3606;52.930;8.644;2023-04-16T12:32:41;16.10;99.90
7129;DHT22;3606;52.930;8.644;2023-04-16T12:35:07;16.20;99.90
7129;DHT22;3606;52.930;8.644;2023-04-16T12:37:34;16.40;99.90
7129;DHT22;3606;52.930;8.644;2023-04-16T12:40:00;16.40;99.90
7129;DHT22;3606;52.930;8.644;2023-04-16T12:42:26;16.20;99.90
7129;DHT22;3606;52.930;8.644;2023-04-16T12:44:52;15.80;99.90
7129;DHT22;3606;52.930;8.644;2023-04-16T12:47:18;15.70;99.90
7129;DHT22;3606;52.930;8.644;2023-04-16T12:49:43;15.60;99.90
7129;DHT22;3606;52.930;8.644;2023-04-16T12:52:10;15.50;99.90
7129;DHT22;3606;52.930;8.644;2023-04-16T12:54:35;15.50;99.90
7129;DHT22;3606;52.930;8.644;2023-04-16T12:57:01;15.60;99.90
7129;DHT22;3606;52.930;8.644;2023-04-16T12:59:26;15.50;99.90
7129;DHT22;3606;52.930;8.644;2023-04-16T13:01:52;15.30;1.00
7129;DHT22;3606;52.930;8.644;2023-04-16T13:04:17;15.10;1.00
7129;DHT22;3606;52.930;8.644;2023-04-16T13:06:43;14.90;1.00
7129;DHT22;3606;52.930;8.644;2023-04-16T13:09:10;14.80;1.00
7129;DHT22;3606;52.930;8.644;2023-04-16T13:11:36;14.60;1.00
7129;DHT22;3606;52.930;8.644;2023-04-16T13:14:02;14.50;1.00
7129;DHT22;3606;52.930;8.644;2023-04-16T13:16:27;14.60;1.00
7129;DHT22;3606;52.930;8.644;2023-04-16T13:18:53;14.60;1.00
7129;DHT22;3606;52.930;8.644;2023-04-16T13:21:19;14.50;1.00
7129;DHT22;3606;52.930;8.644;2023-04-16T13:23:44;14.40;1.00
7129;DHT22;3606;52.930;8.644;2023-04-16T13:26:10;14.20;1.00
7129;DHT22;3606;52.930;8.644;2023-04-16T13:28:37;14.20;1.00
7129;DHT22;3606;52.930;8.644;2023-04-16T13:31:03;14.10;1.00
7129;DHT22;3606;52.930;8.644;2023-04-16T13:33:28;14.20;77.00
7129;DHT22;3606;52.930;8.644;2023-04-16T13:35:54;14.30;99.90
7129;DHT22;3606;52.930;8.644;2023-04-16T13:38:20;14.40;99.90
7129;DHT22;3606;52.930;8.644;2023-04-16T13:40:46;14.60;1.00
7129;DHT22;3606;52.930;8.644;2023-04-16T13:43:11;14.70;1.00
7129;DHT22;3606;52.930;8.644;2023-04-16T13:45:38;14.60;1.00
7129;DHT22;3606;52.930;8.644;2023-04-16T13:48:04;14.70;1.00
7129;DHT22;3606;52.930;8.644;2023-04-16T13:50:29;14.60;1.00
7129;DHT22;3606;52.930;8.644;2023-04-16T13:52:55;14.60;1.00
7129;DHT22;3606;52.930;8.644;2023-04-16T13:55:21;14.40;1.00
7129;DHT22;3606;52.930;8.644;2023-04-16T13:57:47;14.40;1.00
7129;DHT22;3606;52.930;8.644;2023-04-16T14:00:15;14.30;1.00
7129;DHT22;3606;52.930;8.644;2023-04-16T14:02:41;14.10;1.00
7129;DHT22;3606;52.930;8.644;2023-04-16T14:05:07;14.20;98.60
7129;DHT22;3606;52.930;8.644;2023-04-16T14:07:33;14.40;99.90
7129;DHT22;3606;52.930;8.644;2023-04-16T14:09:59;14.60;19.20
7129;DHT22;3606;52.930;8.644;2023-04-16T14:12:27;14.60;1.00
7129;DHT22;3606;52.930;8.644;2023-04-16T14:14:52;14.50;1.00
7129;DHT22;3606;52.930;8.644;2023-04-16T14:17:18;14.60;1.00
7129;DHT22;3606;52.930;8.644;2023-04-16T14:19:43;14.80;6.40
7129;DHT22;3606;52.930;8.644;2023-04-16T14:22:09;15.00;1.00
7129;DHT22;3606;52.930;8.644;2023-04-16T14:24:35;15.10;1.00
7129;DHT22;3606;52.930;8.644;2023-04-16T14:27:00;15.00;1.00
7129;DHT22;3606;52.930;8.644;2023-04-16T14:29:26;15.00;1.00
7129;DHT22;3606;52.930;8.644;2023-04-16T14:31:52;14.90;1.00
7129;DHT22;3606;52.930;8.644;2023-04-16T14:34:17;14.70;1.00
7129;DHT22;3606;52.930;8.644;2023-04-16T14:36:43;14.70;1.00
7129;DHT22;3606;52.930;8.644;2023-04-16T14:39:09;14.50;1.00
7129;DHT22;3606;52.930;8.644;2023-04-16T14:41:35;14.60;78.00
7129;DHT22;3606;52.930;8.644;2023-04-16T14:44:01;14.60;27.50
7129;DHT22;3606;52.930;8.644;2023-04-16T14:46:28;14.70;1.00
7129;DHT22;3606;52.930;8.644;2023-04-16T14:48:54;14.60;1.00
7129;DHT22;3606;52.930;8.644;2023-04-16T14:51:20;14.60;1.00
7129;DHT22;3606;52.930;8.644;2023-04-16T14:53:46;14.50;19.40
7129;DHT22;3606;52.930;8.644;2023-04-16T14:56:11;14.40;99.90
7129;DHT22;3606;52.930;8.644;2023-04-16T14:58:37;14.40;70.60
7129;DHT22;3606;52.930;8.644;2023-04-16T15:01:03;14.30;76.40
7129;DHT22;3606;52.930;8.644;2023-04-16T15:03:29;14.20;99.90
7129;DHT22;3606;52.930;8.644;2023-04-16T15:05:56;14.20;95.40
7129;DHT22;3606;52.930;8.644;2023-04-16T15:08:22;14.10;99.90
7129;DHT22;3606;52.930;8.644;2023-04-16T15:10:48;14.00;89.10
7129;DHT22;3606;52.930;8.644;2023-04-16T15:13:14;14.10;99.90
7129;DHT22;3606;52.930;8.644;2023-04-16T15:15:40;14.10;99.90
7129;DHT22;3606;52.930;8.644;2023-04-16T15:18:05;14.00;27.60
7129;DHT22;3606;52.930;8.644;2023-04-16T15:20:31;13.80;99.90
7129;DHT22;3606;52.930;8.644;2023-04-16T15:22:57;13.70;99.90
7129;DHT22;3606;52.930;8.644;2023-04-16T15:25:22;13.70;99.90
7129;DHT22;3606;52.930;8.644;2023-04-16T15:27:50;13.80;99.90
7129;DHT22;3606;52.930;8.644;2023-04-16T15:30:15;13.90;99.90
7129;DHT22;3606;52.930;8.644;2023-04-16T15:32:42;13.90;99.90
7129;DHT22;3606;52.930;8.644;2023-04-16T15:35:08;13.90;99.90
7129;DHT22;3606;52.930;8.644;2023-04-16T15:37:34;13.70;99.90
7129;DHT22;3606;52.930;8.644;2023-04-16T15:39:59;13.50;99.90
7129;DHT22;3606;52.930;8.644;2023-04-16T15:42:25;13.40;99.90
7129;DHT22;3606;52.930;8.644;2023-04-16T15:44:51;13.30;99.90
7129;DHT22;3606;52.930;8.644;2023-04-16T15:47:17;13.20;99.90
7129;DHT22;3606;52.930;8.644;2023-04-16T15:49:42;13.00;99.90
7129;DHT22;3606;52.930;8.644;2023-04-16T15:52:10;13.00;99.90
7129;DHT22;3606;52.930;8.644;2023-04-16T15:54:36;12.90;99.90
7129;DHT22;3606;52.930;8.644;2023-04-16T15:57:01;13.00;99.90
7129;DHT22;3606;52.930;8.644;2023-04-16T15:59:27;13.00;99.90
7129;DHT22;3606;52.930;8.644;2023-04-16T16:01:53;13.00;99.90
7129;DHT22;3606;52.930;8.644;2023-04-16T16:04:18;13.00;99.90
7129;DHT22;3606;52.930;8.644;2023-04-16T16:06:47;13.00;99.90
7129;DHT22;3606;52.930;8.644;2023-04-16T16:09:13;12.90;99.90
7129;DHT22;3606;52.930;8.644;2023-04-16T16:11:38;13.00;99.90
7129;DHT22;3606;52.930;8.644;2023-04-16T16:14:04;13.00;1.00